createdAt,value
2023-05-15T00:00:44.553Z,71.00
2023-05-15T00:03:12.525Z,70.90
2023-05-15T00:05:40.028Z,71.10
2023-05-15T00:08:07.109Z,71.10
2023-05-15T00:10:33.975Z,71.30
2023-05-15T00:13:00.774Z,71.30
2023-05-15T00:15:27.855Z,71.40
2023-05-15T00:17:54.843Z,71.40
2023-05-15T00:20:21.746Z,71.30
2023-05-15T00:22:48.557Z,71.20
2023-05-15T00:25:15.407Z,71.20
2023-05-15T00:27:42.307Z,71.20
2023-05-15T00:30:09.826Z,71.30
2023-05-15T00:32:36.724Z,71.70
2023-05-15T00:35:04.993Z,72.10
2023-05-15T00:37:31.854Z,72.10
2023-05-15T00:39:58.634Z,72.30
2023-05-15T00:42:25.821Z,72.40
2023-05-15T00:44:53.816Z,72.80
2023-05-15T00:47:21.108Z,73.00
2023-05-15T00:49:49.283Z,72.90
2023-05-15T00:52:16.293Z,73.00
2023-05-15T00:54:43.116Z,73.10
2023-05-15T00:57:11.383Z,73.40
2023-05-15T00:59:40.537Z,73.60
2023-05-15T01:02:09.017Z,74.00
2023-05-15T01:04:36.121Z,73.90
2023-05-15T01:07:03.038Z,73.90
2023-05-15T01:09:30.967Z,73.80
2023-05-15T01:12:00.728Z,73.90
2023-05-15T01:14:27.644Z,73.90
2023-05-15T01:16:54.390Z,74.00
2023-05-15T01:19:21.506Z,74.10
2023-05-15T01:22:15.954Z,74.10
2023-05-15T01:24:59.690Z,74.30
2023-05-15T01:27:49.261Z,74.50
2023-05-15T01:30:23.659Z,74.60
2023-05-15T01:33:08.395Z,74.70
2023-05-15T01:35:46.943Z,74.80
2023-05-15T01:38:27.794Z,75.00
2023-05-15T01:41:01.975Z,75.10
2023-05-15T01:43:31.758Z,75.10
2023-05-15T01:45:59.209Z,75.10
2023-05-15T01:48:27.532Z,75.30
2023-05-15T01:51:01.169Z,75.20
2023-05-15T01:53:31.138Z,75.30
2023-05-15T01:55:59.096Z,75.30
2023-05-15T01:58:28.110Z,75.40
2023-05-15T02:00:56.235Z,75.70
2023-05-15T02:03:24.375Z,75.90
2023-05-15T02:05:53.244Z,76.20
2023-05-15T02:08:21.618Z,76.50
2023-05-15T02:10:49.446Z,76.80
2023-05-15T02:13:17.464Z,77.10
2023-05-15T02:15:44.516Z,77.50
2023-05-15T02:18:13.387Z,77.60
2023-05-15T02:20:40.315Z,77.70
2023-05-15T02:23:07.176Z,77.60
2023-05-15T02:26:21.550Z,77.80
2023-05-15T02:29:01.242Z,78.00
2023-05-15T02:31:47.501Z,77.80
2023-05-15T02:34:34.692Z,77.90
2023-05-15T02:37:03.157Z,77.80
2023-05-15T02:39:31.408Z,77.70
2023-05-15T02:42:01.401Z,77.80
2023-05-15T02:44:29.433Z,77.70
2023-05-15T02:46:57.797Z,77.60
2023-05-15T02:49:25.153Z,77.40
2023-05-15T02:51:52.299Z,77.40
2023-05-15T02:54:21.575Z,77.70
2023-05-15T02:56:48.449Z,77.70
2023-05-15T02:59:19.690Z,77.90
2023-05-15T03:01:47.307Z,78.00
2023-05-15T03:04:17.482Z,77.90
2023-05-15T03:06:44.323Z,78.00
2023-05-15T03:09:11.199Z,77.90
2023-05-15T03:11:38.044Z,78.20
2023-05-15T03:14:04.900Z,78.10
2023-05-15T03:16:31.946Z,78.10
2023-05-15T03:18:58.861Z,77.80
2023-05-15T03:21:26.052Z,77.80
2023-05-15T03:23:52.838Z,77.70
2023-05-15T03:26:19.633Z,77.70
2023-05-15T03:28:46.366Z,77.50
2023-05-15T03:31:14.326Z,77.60
2023-05-15T03:33:41.350Z,77.80
2023-05-15T03:36:08.641Z,77.80
2023-05-15T03:38:35.503Z,77.70
2023-05-15T03:41:02.806Z,77.80
2023-05-15T03:43:32.330Z,77.70
2023-05-15T03:45:59.403Z,77.90
2023-05-15T03:48:26.163Z,77.80
2023-05-15T03:50:53.359Z,77.90
2023-05-15T03:53:20.346Z,77.90
2023-05-15T03:55:47.168Z,77.80
2023-05-15T03:58:14.098Z,77.80
2023-05-15T04:00:40.841Z,77.80
2023-05-15T04:03:07.802Z,77.90
2023-05-15T04:05:34.657Z,77.90
2023-05-15T04:08:01.616Z,78.00
2023-05-15T04:10:29.370Z,78.40
2023-05-15T04:12:56.212Z,78.40
2023-05-15T04:15:29.087Z,78.40
2023-05-15T04:17:56.018Z,78.40
2023-05-15T04:20:24.878Z,78.50
2023-05-15T04:22:52.484Z,78.40
2023-05-15T04:25:20.581Z,78.50
2023-05-15T04:27:47.509Z,78.60
2023-05-15T04:30:14.562Z,78.50
2023-05-15T04:32:42.422Z,78.60
2023-05-15T04:35:10.608Z,78.60
2023-05-15T04:37:38.796Z,78.40
2023-05-15T04:40:08.135Z,78.50
2023-05-15T04:42:37.657Z,78.60
2023-05-15T04:45:06.404Z,78.60
2023-05-15T04:47:33.372Z,78.60
2023-05-15T04:50:00.256Z,78.60
2023-05-15T04:52:27.177Z,78.50
2023-05-15T04:54:55.902Z,78.10
2023-05-15T04:57:23.049Z,77.80
2023-05-15T04:59:50.302Z,77.90
2023-05-15T05:02:23.483Z,77.90
2023-05-15T05:04:50.647Z,77.70
2023-05-15T05:07:17.514Z,77.20
2023-05-15T05:09:44.487Z,76.80
2023-05-15T05:12:11.468Z,76.80
2023-05-15T05:14:40.524Z,76.60
2023-05-15T05:17:07.438Z,76.60
2023-05-15T05:19:34.316Z,76.50
2023-05-15T05:22:04.743Z,76.70
2023-05-15T05:24:32.491Z,76.70
2023-05-15T05:26:59.356Z,76.90
2023-05-15T05:29:26.468Z,76.80
2023-05-15T05:31:53.830Z,76.50
2023-05-15T05:34:20.791Z,76.20
2023-05-15T05:36:47.760Z,76.40
2023-05-15T05:39:16.853Z,76.50
2023-05-15T05:41:44.161Z,76.20
2023-05-15T05:44:11.081Z,75.70
2023-05-15T05:46:38.000Z,75.50
2023-05-15T05:49:05.090Z,75.70
2023-05-15T05:51:32.136Z,75.70
2023-05-15T05:53:58.975Z,75.70
2023-05-15T05:56:26.573Z,75.60
2023-05-15T05:58:53.960Z,74.90
2023-05-15T06:01:21.320Z,74.70
2023-05-15T06:03:48.591Z,74.00
2023-05-15T06:06:15.621Z,73.60
2023-05-15T06:08:42.526Z,73.20
2023-05-15T06:11:09.319Z,73.30
2023-05-15T06:13:36.110Z,73.30
2023-05-15T06:16:03.020Z,73.50
2023-05-15T06:18:30.682Z,73.60
2023-05-15T06:21:00.209Z,73.50
2023-05-15T06:23:27.231Z,73.30
2023-05-15T06:25:54.041Z,72.50
2023-05-15T06:28:20.982Z,72.40
2023-05-15T06:30:47.875Z,72.40
2023-05-15T06:33:14.694Z,72.60
2023-05-15T06:35:41.543Z,72.70
2023-05-15T06:38:08.514Z,72.80
2023-05-15T06:40:35.332Z,72.70
2023-05-15T06:43:02.272Z,73.00
2023-05-15T06:45:29.209Z,73.00
2023-05-15T06:47:58.510Z,72.90
2023-05-15T06:50:26.879Z,72.10
2023-05-15T06:52:54.724Z,71.70
2023-05-15T06:55:21.645Z,71.60
2023-05-15T06:57:48.463Z,70.90
2023-05-15T07:00:16.037Z,70.60
2023-05-15T07:02:43.933Z,69.90
2023-05-15T07:05:11.464Z,69.60
2023-05-15T07:07:38.612Z,69.40
2023-05-15T07:10:06.046Z,69.90
2023-05-15T07:12:33.116Z,69.90
2023-05-15T07:15:00.312Z,70.20
2023-05-15T07:17:27.479Z,70.10
2023-05-15T07:19:54.577Z,69.90
2023-05-15T07:22:21.473Z,69.90
2023-05-15T07:24:48.335Z,69.30
2023-05-15T07:27:15.070Z,69.30
2023-05-15T07:29:41.949Z,68.60
2023-05-15T07:32:08.746Z,68.60
2023-05-15T07:34:35.686Z,68.80
2023-05-15T07:37:02.689Z,69.10
2023-05-15T07:39:29.611Z,68.40
2023-05-15T07:41:56.555Z,68.10
2023-05-15T07:44:23.308Z,67.80
2023-05-15T07:46:50.076Z,68.20
2023-05-15T07:49:16.904Z,68.20
2023-05-15T07:51:43.720Z,68.20
2023-05-15T07:54:10.634Z,67.80
2023-05-15T07:56:39.049Z,67.30
2023-05-15T07:59:06.055Z,67.10
2023-05-15T08:01:33.113Z,67.20
2023-05-15T08:04:00.412Z,67.40
2023-05-15T08:06:27.476Z,67.40
2023-05-15T08:08:54.277Z,67.60
2023-05-15T08:11:21.987Z,67.70
2023-05-15T08:13:49.441Z,67.10
2023-05-15T08:16:16.361Z,66.90
2023-05-15T08:18:43.257Z,67.20
2023-05-15T08:21:11.130Z,67.00
2023-05-15T08:23:38.122Z,67.30
2023-05-15T08:26:05.056Z,67.40
2023-05-15T08:28:31.777Z,67.20
2023-05-15T08:30:58.662Z,67.60
2023-05-15T08:33:25.612Z,68.00
2023-05-15T08:35:53.408Z,67.80
2023-05-15T08:38:20.339Z,68.10
2023-05-15T08:40:50.294Z,68.50
2023-05-15T08:43:18.566Z,68.70
2023-05-15T08:45:45.741Z,68.30
2023-05-15T08:48:17.892Z,68.30
2023-05-15T08:50:45.053Z,68.10
2023-05-15T08:53:15.532Z,68.80
2023-05-15T08:55:42.632Z,68.80
2023-05-15T08:58:09.740Z,68.70
2023-05-15T09:00:37.662Z,68.50
2023-05-15T09:03:05.066Z,68.30
2023-05-15T09:05:32.301Z,68.00
2023-05-15T09:08:02.025Z,68.10
2023-05-15T09:10:29.861Z,68.00
2023-05-15T09:12:57.873Z,68.10
2023-05-15T09:15:25.681Z,68.10
2023-05-15T09:17:52.998Z,67.90
2023-05-15T09:20:34.376Z,67.80
2023-05-15T09:23:03.554Z,67.80
2023-05-15T09:25:40.576Z,67.90
2023-05-15T09:28:10.724Z,68.00
2023-05-15T09:30:43.873Z,68.10
2023-05-15T09:33:11.945Z,68.60
2023-05-15T09:35:39.538Z,68.70
2023-05-15T09:38:11.989Z,68.90
2023-05-15T09:40:40.922Z,69.20
2023-05-15T09:43:11.773Z,69.30
2023-05-15T09:45:38.676Z,69.40
2023-05-15T09:48:07.261Z,69.50
2023-05-15T09:50:38.847Z,69.40
2023-05-15T09:53:06.083Z,69.70
2023-05-15T09:55:34.524Z,69.90
2023-05-15T09:58:06.681Z,70.30
2023-05-15T10:00:34.321Z,70.60
2023-05-15T10:03:06.021Z,71.00
2023-05-15T10:05:43.160Z,71.00
2023-05-15T10:08:11.369Z,71.00
2023-05-15T10:10:38.669Z,71.20
2023-05-15T10:13:07.919Z,71.20
2023-05-15T10:15:35.475Z,71.40
2023-05-15T10:18:04.898Z,71.20
2023-05-15T10:20:35.601Z,71.40
2023-05-15T10:23:06.392Z,71.70
2023-05-15T10:25:50.873Z,71.90
2023-05-15T10:28:18.954Z,71.70
2023-05-15T10:30:46.905Z,71.60
2023-05-15T10:33:14.271Z,71.70
2023-05-15T10:35:42.485Z,71.60
2023-05-15T10:38:11.549Z,71.60
2023-05-15T10:40:40.812Z,71.40
2023-05-15T10:43:10.283Z,71.10
2023-05-15T10:45:37.553Z,71.30
2023-05-15T10:48:07.768Z,71.40
2023-05-15T10:50:37.021Z,71.50
2023-05-15T10:53:04.013Z,71.40
2023-05-15T10:55:31.294Z,71.60
2023-05-15T10:57:58.240Z,71.80
2023-05-15T11:00:31.433Z,72.30
2023-05-15T11:02:59.213Z,72.50
2023-05-15T11:05:26.822Z,72.50
2023-05-15T11:08:15.555Z,72.20
2023-05-15T11:10:42.472Z,71.30
2023-05-15T11:13:09.268Z,70.50
2023-05-15T11:15:54.351Z,70.30
2023-05-15T11:18:21.157Z,70.50
2023-05-15T11:20:51.963Z,70.80
2023-05-15T11:23:22.495Z,70.60
2023-05-15T11:25:58.885Z,69.70
2023-05-15T11:28:29.321Z,68.80
2023-05-15T11:31:07.025Z,68.60
2023-05-15T11:33:34.228Z,68.40
2023-05-15T11:36:01.648Z,68.50
2023-05-15T11:38:28.466Z,68.10
2023-05-15T11:41:03.109Z,67.90
2023-05-15T11:43:35.357Z,66.20
2023-05-15T11:46:10.395Z,64.20
2023-05-15T11:48:47.684Z,62.00
2023-05-15T11:51:20.432Z,61.30
2023-05-15T11:53:49.852Z,60.80
2023-05-15T11:56:21.809Z,61.40
2023-05-15T11:58:50.004Z,61.80
2023-05-15T12:01:16.956Z,63.00
2023-05-15T12:03:46.782Z,63.30
2023-05-15T12:06:13.927Z,63.30
2023-05-15T12:08:42.038Z,62.90
2023-05-15T12:11:09.258Z,62.40
2023-05-15T12:13:36.143Z,62.50
2023-05-15T12:16:04.369Z,61.60
2023-05-15T12:18:32.710Z,61.20
2023-05-15T12:20:59.988Z,60.50
2023-05-15T12:23:28.383Z,61.20
2023-05-15T12:26:00.122Z,61.50
2023-05-15T12:28:27.763Z,62.50
2023-05-15T12:30:55.474Z,61.90
2023-05-15T12:33:23.461Z,61.90
2023-05-15T12:35:54.929Z,61.40
2023-05-15T12:38:24.780Z,62.10
2023-05-15T12:40:53.625Z,62.10
2023-05-15T12:43:23.491Z,62.30
2023-05-15T12:45:56.153Z,63.00
2023-05-15T12:48:23.360Z,62.10
2023-05-15T12:50:50.465Z,61.00
2023-05-15T12:53:18.074Z,60.30
2023-05-15T12:55:46.803Z,60.20
2023-05-15T12:58:15.670Z,58.90
2023-05-15T13:00:46.106Z,58.80
2023-05-15T13:03:14.064Z,58.90
2023-05-15T13:05:45.591Z,58.80
2023-05-15T13:08:17.554Z,58.90
2023-05-15T13:10:45.538Z,59.80
2023-05-15T13:13:12.476Z,60.60
2023-05-15T13:15:42.587Z,61.50
2023-05-15T13:18:10.593Z,61.90
2023-05-15T13:20:45.870Z,62.20
2023-05-15T13:23:16.146Z,61.90
2023-05-15T13:25:43.404Z,61.60
2023-05-15T13:28:11.189Z,61.40
2023-05-15T13:30:42.296Z,61.40
2023-05-15T13:33:10.614Z,61.40
2023-05-15T13:35:39.072Z,61.20
2023-05-15T13:38:07.074Z,60.70
2023-05-15T13:40:38.027Z,60.80
2023-05-15T13:43:06.668Z,61.10
2023-05-15T13:45:33.695Z,61.60
2023-05-15T13:48:00.691Z,62.20
2023-05-15T13:50:27.746Z,62.30
2023-05-15T13:52:54.787Z,63.10
2023-05-15T13:55:23.209Z,63.10
2023-05-15T13:57:51.327Z,62.80
2023-05-15T14:00:18.619Z,62.80
2023-05-15T14:02:45.962Z,62.80
2023-05-15T14:05:14.805Z,62.80
2023-05-15T14:07:41.916Z,62.90
2023-05-15T14:10:09.642Z,63.10
2023-05-15T14:12:37.751Z,63.50
2023-05-15T14:15:04.989Z,64.00
2023-05-15T14:17:31.897Z,64.10
2023-05-15T14:19:58.739Z,63.60
2023-05-15T14:22:25.556Z,64.20
2023-05-15T14:24:55.759Z,64.00
2023-05-15T14:27:22.735Z,63.90
2023-05-15T14:29:49.744Z,64.00
2023-05-15T14:32:17.269Z,64.60
2023-05-15T14:34:44.769Z,64.50
2023-05-15T14:37:11.667Z,64.70
2023-05-15T14:39:38.568Z,64.80
2023-05-15T14:42:06.316Z,64.90
2023-05-15T14:44:34.624Z,65.00
2023-05-15T14:47:12.807Z,65.10
2023-05-15T14:49:40.073Z,64.90
2023-05-15T14:52:11.734Z,64.60
2023-05-15T14:54:39.526Z,63.90
2023-05-15T14:57:07.000Z,64.00
2023-05-15T14:59:34.075Z,64.30
2023-05-15T15:02:01.118Z,64.30
2023-05-15T15:04:30.585Z,64.20
2023-05-15T15:06:57.539Z,64.00
2023-05-15T15:09:26.394Z,64.10
2023-05-15T15:11:54.499Z,64.30
2023-05-15T15:14:21.367Z,64.80
2023-05-15T15:16:48.222Z,64.90
2023-05-15T15:19:17.506Z,65.10
2023-05-15T15:21:45.922Z,65.10
2023-05-15T15:24:12.735Z,65.30
2023-05-15T15:26:40.018Z,65.30
2023-05-15T15:29:07.114Z,65.70
2023-05-15T15:31:34.013Z,66.00
2023-05-15T15:34:03.041Z,66.20
2023-05-15T15:36:31.954Z,66.70
2023-05-15T15:38:58.815Z,67.00
2023-05-15T15:41:25.773Z,67.20
2023-05-15T15:43:53.782Z,66.80
2023-05-15T15:46:20.825Z,66.60
2023-05-15T15:48:48.362Z,66.40
2023-05-15T15:51:15.298Z,66.30
2023-05-15T15:53:42.483Z,66.40
2023-05-15T15:56:09.390Z,66.30
2023-05-15T15:58:36.283Z,66.60
2023-05-15T16:01:03.495Z,66.80
2023-05-15T16:03:31.513Z,67.00
2023-05-15T16:06:00.057Z,67.00
2023-05-15T16:08:27.339Z,66.90
2023-05-15T16:10:55.088Z,67.20
2023-05-15T16:13:21.996Z,66.90
2023-05-15T16:15:49.537Z,67.00
2023-05-15T16:18:16.661Z,67.20
2023-05-15T16:20:43.823Z,67.60
2023-05-15T16:23:14.170Z,67.50
2023-05-15T16:25:43.078Z,67.50
2023-05-15T16:28:10.500Z,67.40
2023-05-15T16:30:48.919Z,67.40
2023-05-15T16:33:24.975Z,67.20
2023-05-15T16:35:58.305Z,67.10
2023-05-15T16:38:26.545Z,66.70
2023-05-15T16:40:53.469Z,66.40
2023-05-15T16:43:25.630Z,66.60
2023-05-15T16:45:54.005Z,66.30
2023-05-15T16:48:27.987Z,66.30
2023-05-15T16:50:57.936Z,66.60
2023-05-15T16:53:24.815Z,66.60
2023-05-15T16:55:57.558Z,66.50
2023-05-15T16:58:24.522Z,66.40
2023-05-15T17:00:56.030Z,66.30
2023-05-15T17:03:24.976Z,66.50
2023-05-15T17:05:51.868Z,66.50
2023-05-15T17:08:18.718Z,66.60
2023-05-15T17:10:45.544Z,66.80
2023-05-15T17:13:12.422Z,66.90
2023-05-15T17:15:39.326Z,66.80
2023-05-15T17:18:06.264Z,66.80
2023-05-15T17:20:33.058Z,66.50
2023-05-15T17:23:00.030Z,66.40
2023-05-15T17:25:27.132Z,66.40
2023-05-15T17:27:54.095Z,66.40
2023-05-15T17:30:21.164Z,66.30
2023-05-15T17:32:48.008Z,66.40
2023-05-15T17:35:15.752Z,66.70
2023-05-15T17:37:42.646Z,66.70
2023-05-15T17:40:09.772Z,66.90
2023-05-15T17:42:36.667Z,67.10
2023-05-15T17:45:04.093Z,67.30
2023-05-15T17:47:31.022Z,67.60
2023-05-15T17:49:57.837Z,67.50
2023-05-15T17:52:24.699Z,67.70
2023-05-15T17:54:51.555Z,68.10
2023-05-15T17:57:18.344Z,68.30
2023-05-15T17:59:45.100Z,68.10
2023-05-15T18:02:12.217Z,68.10
2023-05-15T18:04:39.283Z,68.30
2023-05-15T18:07:06.247Z,68.50
2023-05-15T18:09:33.071Z,68.70
2023-05-15T18:11:59.844Z,68.90
2023-05-15T18:14:26.698Z,69.00
2023-05-15T18:16:55.351Z,69.30
2023-05-15T18:19:22.657Z,69.20
2023-05-15T18:21:49.606Z,69.30
2023-05-15T18:24:16.445Z,69.40
2023-05-15T18:26:43.321Z,69.40
2023-05-15T18:29:10.043Z,69.50
2023-05-15T18:31:36.889Z,69.60
2023-05-15T18:34:03.740Z,69.70
2023-05-15T18:36:30.762Z,69.80
2023-05-15T18:38:57.533Z,69.70
2023-05-15T18:41:24.369Z,69.90
2023-05-15T18:43:51.233Z,70.10
2023-05-15T18:46:18.175Z,70.40
2023-05-15T18:48:44.993Z,70.60
2023-05-15T18:51:12.541Z,71.30
2023-05-15T18:53:39.435Z,71.90
2023-05-15T18:56:06.244Z,72.30
2023-05-15T18:58:32.947Z,72.40
2023-05-15T19:01:00.224Z,72.90
2023-05-15T19:03:27.272Z,73.30
2023-05-15T19:05:54.032Z,73.80
2023-05-15T19:08:20.822Z,73.90
2023-05-15T19:10:48.501Z,74.40
2023-05-15T19:13:15.324Z,74.60
2023-05-15T19:15:53.414Z,74.60
2023-05-15T19:18:20.374Z,74.70
2023-05-15T19:20:50.438Z,74.80
2023-05-15T19:23:17.336Z,74.90
2023-05-15T19:25:45.057Z,74.80
2023-05-15T19:28:12.960Z,74.90
2023-05-15T19:30:39.845Z,74.80
2023-05-15T19:33:06.839Z,74.90
2023-05-15T19:35:35.900Z,74.90
2023-05-15T19:38:04.174Z,74.90
2023-05-15T19:40:30.941Z,74.80
2023-05-15T19:42:57.737Z,74.80
2023-05-15T19:45:24.545Z,74.80
2023-05-15T19:47:51.382Z,74.50
2023-05-15T19:50:18.324Z,74.30
2023-05-15T19:52:45.615Z,74.30
2023-05-15T19:55:12.636Z,74.50
2023-05-15T19:57:44.470Z,74.50
2023-05-15T20:00:12.483Z,74.60
2023-05-15T20:02:41.299Z,74.60
2023-05-15T20:05:08.777Z,74.70
2023-05-15T20:07:35.998Z,74.90
2023-05-15T20:10:02.716Z,74.90
2023-05-15T20:12:29.588Z,75.00
2023-05-15T20:14:56.450Z,74.90
2023-05-15T20:17:23.361Z,74.90
2023-05-15T20:19:50.858Z,74.90
2023-05-15T20:22:17.645Z,74.50
2023-05-15T20:24:45.833Z,73.90
2023-05-15T20:27:12.685Z,73.80
2023-05-15T20:29:39.552Z,73.60
2023-05-15T20:32:06.574Z,73.80
2023-05-15T20:34:36.665Z,73.70
2023-05-15T20:37:03.698Z,73.50
2023-05-15T20:39:30.781Z,73.40
2023-05-15T20:41:57.770Z,73.50
2023-05-15T20:44:24.670Z,73.40
2023-05-15T20:46:51.514Z,73.30
2023-05-15T20:49:18.330Z,73.50
2023-05-15T20:51:45.235Z,73.40
2023-05-15T20:54:12.177Z,73.30
2023-05-15T20:56:39.185Z,73.10
2023-05-15T20:59:06.185Z,72.90
2023-05-15T21:01:33.159Z,73.00
2023-05-15T21:04:00.079Z,72.70
2023-05-15T21:06:27.120Z,72.60
2023-05-15T21:08:54.197Z,72.50
2023-05-15T21:11:21.682Z,72.40
2023-05-15T21:13:48.598Z,72.20
2023-05-15T21:16:15.490Z,72.10
2023-05-15T21:18:42.434Z,72.10
2023-05-15T21:21:09.420Z,72.10
2023-05-15T21:23:36.730Z,71.80
2023-05-15T21:26:03.887Z,72.00
2023-05-15T21:28:30.850Z,71.80
2023-05-15T21:30:57.767Z,71.90
2023-05-15T21:33:24.625Z,71.80
2023-05-15T21:35:51.545Z,71.70
2023-05-15T21:38:18.575Z,71.70
2023-05-15T21:40:45.361Z,71.70
2023-05-15T21:43:12.184Z,71.60
2023-05-15T21:45:39.160Z,71.60
2023-05-15T21:48:06.206Z,71.60
2023-05-15T21:50:33.028Z,71.60
2023-05-15T21:52:59.848Z,71.50
2023-05-15T21:55:26.733Z,71.60
2023-05-15T21:57:53.653Z,71.60
2023-05-15T22:00:20.901Z,71.60
2023-05-15T22:02:47.777Z,71.60
2023-05-15T22:05:14.927Z,71.60
2023-05-15T22:07:41.863Z,71.60
2023-05-15T22:10:13.655Z,71.70
2023-05-15T22:12:40.448Z,71.80
2023-05-15T22:15:07.948Z,71.70
2023-05-15T22:17:36.242Z,71.50
2023-05-15T22:20:08.226Z,71.50
2023-05-15T22:22:35.995Z,71.20
2023-05-15T22:25:03.320Z,71.10
2023-05-15T22:27:30.435Z,70.90
2023-05-15T22:29:57.452Z,70.90
2023-05-15T22:32:24.937Z,70.80
2023-05-15T22:34:51.918Z,70.80
2023-05-15T22:37:18.862Z,70.90
2023-05-15T22:39:45.751Z,70.80
2023-05-15T22:42:12.591Z,70.80
2023-05-15T22:44:39.371Z,70.90
2023-05-15T22:47:07.806Z,71.00
2023-05-15T22:49:34.681Z,71.00
2023-05-15T22:52:01.925Z,71.10
2023-05-15T22:54:28.743Z,71.20
2023-05-15T22:56:56.072Z,71.20
2023-05-15T22:59:23.052Z,71.20
2023-05-15T23:01:50.020Z,71.30
2023-05-15T23:04:17.505Z,71.30
2023-05-15T23:06:44.637Z,71.20
2023-05-15T23:09:11.691Z,71.20
2023-05-15T23:11:38.858Z,71.20
2023-05-15T23:14:06.392Z,71.20
2023-05-15T23:16:33.133Z,71.20
2023-05-15T23:18:59.860Z,71.30
2023-05-15T23:21:28.068Z,71.20
2023-05-15T23:23:54.976Z,71.20
2023-05-15T23:26:22.050Z,71.10
2023-05-15T23:28:48.905Z,71.10
2023-05-15T23:31:16.056Z,71.00
2023-05-15T23:33:42.928Z,71.00
2023-05-15T23:36:09.921Z,70.80
2023-05-15T23:38:36.689Z,70.70
2023-05-15T23:41:03.743Z,70.60
2023-05-15T23:43:30.657Z,70.60
2023-05-15T23:45:57.414Z,70.50
2023-05-15T23:48:24.191Z,70.30
2023-05-15T23:50:52.255Z,70.20
2023-05-15T23:53:19.323Z,70.20
2023-05-15T23:55:46.276Z,70.20
2023-05-15T23:58:13.128Z,70.10
